»·PEaware :: N35SL KPRC-KTUS

N35SL :: KPRC-KTUS

FLIGHT INFORMATION

Flight Status: Arrived
Operator: Privately registered:
United States
More flights under this callsign
Pilot: Thomas S. (17015)
Aircraft: Unknown
(VIPJ)
More flights by this aircraft type
Origin: KPRC Love
United States
Destination: KTUS Tucson Intl
United States
More flights between these airports :: More routes between these airports
Route:
File this flight plan on PilotEdge
Remarks:
Altitude:
(Current/Filed)
17,500ft
Speed:
(Current/Filed)
0kts
Departed: 17-Oct-23 08:58 AM
Arrived: 17-Oct-23 09:47 AM
Distance/Time
Traveled:
169nm/0:49
Distance/Time
To Go:
Arrived

Flight Plot

Page will automatically refresh every two minutes.

Flight plan parsing failed; only flown route is shown


Map Options




Map Legend


Flown Route
Filed Route
Departure Airport
Arrival Airport
Navaid (VOR, NDB)
Fix

Horizontal Profiles

Position Reports

Time Latitude Longitude Heading Altitude Ground
Speed
17-Oct-23 08:50 34.652424 -112.418924 220 5010ft 0kts
17-Oct-23 08:51 34.652424 -112.418924 220 5010ft 0kts
17-Oct-23 08:52 34.652408 -112.418942 219 5010ft 1kts
17-Oct-23 08:53 34.653273 -112.418966 42 5000ft 11kts
17-Oct-23 08:54 34.657441 -112.414510 44 4969ft 20kts
17-Oct-23 08:55 34.660648 -112.410542 30 4951ft 13kts
17-Oct-23 08:56 34.661887 -112.411227 299 4948ft 5kts
17-Oct-23 08:57 34.651706 -112.422523 221 5162ft 159kts
17-Oct-23 08:58 34.605932 -112.426823 162 9320ft 170kts
17-Oct-23 08:59 34.557732 -112.407895 163 11884ft 235kts
17-Oct-23 09:00 34.485867 -112.379517 163 15279ft 283kts
17-Oct-23 09:01 34.407719 -112.348794 161 18409ft 320kts
17-Oct-23 09:02 34.306228 -112.308921 161 18455ft 437kts
17-Oct-23 09:03 34.184474 -112.261258 161 18409ft 419kts
17-Oct-23 09:04 34.090487 -112.224569 161 18444ft 317kts
17-Oct-23 09:05 34.000148 -112.189397 161 17238ft 346kts
17-Oct-23 09:06 33.914661 -112.156151 160 15610ft 297kts
17-Oct-23 09:07 33.832816 -112.124351 162 14325ft 333kts
17-Oct-23 09:08 33.736147 -112.086968 162 14286ft 388kts
17-Oct-23 09:09 33.629212 -112.045687 162 14267ft 411kts
17-Oct-23 09:10 33.518584 -112.003088 162 14257ft 420kts
17-Oct-23 09:11 33.409341 -111.951033 147 14240ft 425kts
17-Oct-23 09:12 33.310057 -111.872560 147 14251ft 427kts
17-Oct-23 09:13 33.210333 -111.793585 147 14239ft 429kts
17-Oct-23 09:14 33.110553 -111.714796 147 14227ft 429kts
17-Oct-23 09:15 33.010408 -111.635917 147 14214ft 430kts
17-Oct-23 09:16 32.910354 -111.557350 147 14044ft 433kts
17-Oct-23 09:17 32.814871 -111.482554 147 12685ft 409kts
17-Oct-23 09:18 32.731497 -111.417378 148 11513ft 290kts
17-Oct-23 09:19 32.665644 -111.366031 149 10479ft 286kts
17-Oct-23 09:20 32.598826 -111.314063 149 9457ft 291kts
17-Oct-23 09:21 32.531184 -111.261507 148 8399ft 286kts
17-Oct-23 09:22 32.465479 -111.210560 148 7352ft 279kts
17-Oct-23 09:23 32.400482 -111.161000 148 6294ft 275kts
17-Oct-23 09:24 32.335234 -111.112237 148 5233ft 261kts
17-Oct-23 09:25 32.278752 -111.070019 148 4594ft 233kts
17-Oct-23 09:26 32.220159 -111.026513 148 4099ft 260kts
17-Oct-23 09:27 32.158279 -110.980959 149 4021ft 264kts
17-Oct-23 09:28 32.126491 -110.923613 15 4103ft 221kts
17-Oct-23 09:29 32.142495 -110.954471 217 3318ft 120kts
17-Oct-23 09:30 32.116820 -110.940236 136 2600ft 93kts
17-Oct-23 09:31 32.113969 -110.909553 325 4114ft 221kts
17-Oct-23 09:32 32.139697 -110.949207 238 3550ft 136kts
17-Oct-23 09:33 32.115176 -110.938367 135 2650ft 154kts
17-Oct-23 09:34 32.116216 -110.910062 310 4323ft 229kts
17-Oct-23 09:35 32.135137 -110.959957 165 3203ft 141kts
17-Oct-23 09:36 32.107040 -110.928786 136 2904ft 222kts
17-Oct-23 09:37 32.135186 -110.929140 316 3992ft 270kts
17-Oct-23 09:38 32.121014 -110.945157 135 2617ft 125kts
17-Oct-23 09:39 32.116630 -110.903933 344 4477ft 229kts
17-Oct-23 09:40 32.163376 -110.953385 308 4419ft 215kts
17-Oct-23 09:41 32.196275 -111.011594 253 4589ft 214kts
17-Oct-23 09:42 32.152032 -110.981481 135 3537ft 217kts
17-Oct-23 09:43 32.115632 -110.928062 59 3643ft 216kts
17-Oct-23 09:44 32.144000 -110.954951 218 3292ft 125kts
17-Oct-23 09:45 32.119797 -110.943675 135 2589ft 81kts
17-Oct-23 09:46 32.117118 -110.938501 30 2604ft 10kts
17-Oct-23 09:47 32.119616 -110.941004 316 2595ft 15kts
17-Oct-23 09:48 32.123225 -110.945210 316 2581ft 18kts
17-Oct-23 09:49 32.126039 -110.946080 46 2571ft 11kts
17-Oct-23 09:50 32.126456 -110.944369 137 2571ft 7kts
17-Oct-23 09:51 32.125802 -110.943591 129 2574ft 0kts
17-Oct-23 09:52 32.125576 -110.943210 134 2575ft 0kts
17-Oct-23 09:53 32.125576 -110.943210 134 2575ft 0kts
17-Oct-23 09:54 32.125576 -110.943210 134 2575ft 0kts

Navigation Log

Ident Type
Flight plan parsing failed, navigation log unavailable